Main page


Airports :

Doha, Qatar

Doha International Airport

latitude: 25-15-40N, longitude: 051-33-54E, elevation: 11 m

Current weather observation

The report was made 13 minutes ago, at 06:00 UTC
Wind 5 kt from the North/Northeast, varying between North/Northwest and East/Northeast
Temperature 24°C
Humidity 36%
Pressure 1017 hPa
Visibility 10 km or more
no clouds below 1500 m and no cumulonimbus

METAR: OTBD 200600Z 02005KT 330V060 CAVOK 24/08 Q1017 NOSIG

Time: 09:13 (06:13 UTC)


The report was made 1 hour and 12 minutes ago, at 05:01 UTC
Forecast valid from 20 at 06 UTC to 21 at 12 UTC
Wind 5 kt from the North
Visibility: 9000 m
from 20 at 08 UTC to 20 at 10 UTC
Wind 9 kt from the East/Northeast
from 20 at 17 UTC to 20 at 19 UTC
Wind 2 kt from variable directions

TAF: OTBD 200501Z 2006/2112 01005KT 9000 BECMG 2008/2010 07009KT BECMG 2017/2019 VRB02KT

Weather observations and forecasts of more than 4000 airports (METAR and TAF reports).

The available stations are represented by yellow and red dots on the map.

Hover mouse over dot to see the name of the station.

Then click to see weather observations and forecasts.

To change the map : click on the green buttons with a black cross to zoom in, on the green button with a dash to zoom out, or on the green arrows for adjacent maps.